createdAt,value
2022-09-18T00:01:35.105Z,15.80
2022-09-18T00:04:06.391Z,15.80
2022-09-18T00:06:38.532Z,15.80
2022-09-18T00:09:11.414Z,15.80
2022-09-18T00:11:45.579Z,15.70
2022-09-18T00:14:13.522Z,15.70
2022-09-18T00:16:41.244Z,15.70
2022-09-18T00:19:09.300Z,15.80
2022-09-18T00:21:37.500Z,15.80
2022-09-18T00:24:05.801Z,15.80
2022-09-18T00:26:34.172Z,15.80
2022-09-18T00:29:01.562Z,15.80
2022-09-18T00:31:33.474Z,15.90
2022-09-18T00:34:04.872Z,15.90
2022-09-18T00:36:32.057Z,15.90
2022-09-18T00:39:00.159Z,15.90
2022-09-18T00:41:35.587Z,15.90
2022-09-18T00:44:37.727Z,16.00
2022-09-18T00:47:10.486Z,15.90
2022-09-18T00:50:19.239Z,15.90
2022-09-18T00:52:59.063Z,15.90
2022-09-18T00:55:34.795Z,15.90
2022-09-18T00:58:03.818Z,15.90
2022-09-18T01:00:49.461Z,15.90
2022-09-18T01:03:16.515Z,15.90
2022-09-18T01:06:00.444Z,15.90
2022-09-18T01:09:25.203Z,15.90
2022-09-18T01:12:38.529Z,15.90
2022-09-18T01:15:26.851Z,15.90
2022-09-18T01:18:15.286Z,16.00
2022-09-18T01:21:08.743Z,16.00
2022-09-18T01:23:53.761Z,16.00
2022-09-18T01:26:46.621Z,16.00
2022-09-18T01:30:00.824Z,16.00
2022-09-18T01:32:57.694Z,16.00
2022-09-18T01:35:42.062Z,16.00
2022-09-18T01:38:38.709Z,16.00
2022-09-18T01:41:21.668Z,16.00
2022-09-18T01:44:04.242Z,16.00
2022-09-18T01:46:31.687Z,16.00
2022-09-18T01:49:05.915Z,16.00
2022-09-18T01:51:45.231Z,16.00
2022-09-18T01:54:18.030Z,16.00
2022-09-18T01:57:02.968Z,16.00
2022-09-18T01:59:46.216Z,16.10
2022-09-18T02:02:21.003Z,16.10
2022-09-18T02:04:52.083Z,16.10
2022-09-18T02:07:31.128Z,16.10
2022-09-18T02:09:58.867Z,16.10
2022-09-18T02:12:30.399Z,16.10
2022-09-18T02:15:10.498Z,16.10
2022-09-18T02:18:03.841Z,16.10
2022-09-18T02:20:41.899Z,16.10
2022-09-18T02:23:11.402Z,16.10
2022-09-18T02:25:53.789Z,16.20
2022-09-18T02:28:24.509Z,16.20
2022-09-18T02:30:52.085Z,16.20
2022-09-18T02:33:30.290Z,16.20
2022-09-18T02:36:15.215Z,16.20
2022-09-18T02:39:09.659Z,16.20
2022-09-18T02:42:14.612Z,16.20
2022-09-18T02:45:07.825Z,16.20
2022-09-18T02:48:15.613Z,16.20
2022-09-18T02:51:32.057Z,16.20
2022-09-18T02:54:04.356Z,16.20
2022-09-18T02:56:39.685Z,16.10
2022-09-18T02:59:18.586Z,16.20
2022-09-18T03:01:54.348Z,16.20
2022-09-18T03:04:24.857Z,16.20
2022-09-18T03:07:00.469Z,16.20
2022-09-18T03:09:34.591Z,16.20
2022-09-18T03:12:02.854Z,16.20
2022-09-18T03:14:33.440Z,16.30
2022-09-18T03:17:00.368Z,16.30
2022-09-18T03:19:27.649Z,16.30
2022-09-18T03:21:57.384Z,16.20
2022-09-18T03:24:28.485Z,16.20
2022-09-18T03:26:57.577Z,16.20
2022-09-18T03:29:29.754Z,16.20
2022-09-18T03:34:46.921Z,16.20
2022-09-18T03:37:32.447Z,16.20
2022-09-18T03:40:01.204Z,16.20
2022-09-18T03:42:29.318Z,16.20
2022-09-18T03:45:00.049Z,16.20
2022-09-18T03:47:29.377Z,16.20
2022-09-18T03:49:58.208Z,16.20
2022-09-18T03:52:27.006Z,16.20
2022-09-18T03:54:59.352Z,16.20
2022-09-18T03:57:46.963Z,16.20
2022-09-18T04:00:26.113Z,16.20
2022-09-18T04:02:58.554Z,16.10
2022-09-18T04:05:31.852Z,16.10
2022-09-18T04:08:22.474Z,16.10
2022-09-18T04:11:04.426Z,16.10
2022-09-18T04:13:34.554Z,16.10
2022-09-18T04:16:07.379Z,16.10
2022-09-18T04:18:35.248Z,16.10
2022-09-18T04:21:04.282Z,16.10
2022-09-18T04:23:31.382Z,16.10
2022-09-18T04:25:58.540Z,16.10
2022-09-18T04:28:30.699Z,16.10
2022-09-18T04:30:58.417Z,16.10
2022-09-18T04:33:25.827Z,16.00
2022-09-18T04:35:54.074Z,16.00
2022-09-18T04:38:27.423Z,16.00
2022-09-18T04:40:57.607Z,16.00
2022-09-18T04:43:27.108Z,16.00
2022-09-18T04:45:55.254Z,16.00
2022-09-18T04:48:23.219Z,16.00
2022-09-18T04:50:51.272Z,15.90
2022-09-18T04:53:19.194Z,15.90
2022-09-18T04:55:48.240Z,15.80
2022-09-18T04:58:17.544Z,15.80
2022-09-18T05:00:50.677Z,15.70
2022-09-18T05:03:21.143Z,15.70
2022-09-18T05:05:50.585Z,15.60
2022-09-18T05:08:18.452Z,15.60
2022-09-18T05:10:45.840Z,15.60
2022-09-18T05:13:14.749Z,15.60
2022-09-18T05:16:03.059Z,15.60
2022-09-18T05:18:31.943Z,15.60
2022-09-18T05:21:06.491Z,15.60
2022-09-18T05:23:34.833Z,15.70
2022-09-18T05:26:03.165Z,15.70
2022-09-18T05:28:30.490Z,15.70
2022-09-18T05:31:00.530Z,15.70
2022-09-18T05:33:33.706Z,15.60
2022-09-18T05:36:01.100Z,15.70
2022-09-18T05:38:28.192Z,15.70
2022-09-18T05:40:59.666Z,15.70
2022-09-18T05:43:28.006Z,15.70
2022-09-18T05:45:55.354Z,15.70
2022-09-18T05:48:31.377Z,15.70
2022-09-18T05:50:58.645Z,15.70
2022-09-18T05:53:27.950Z,15.70
2022-09-18T05:56:08.700Z,15.80
2022-09-18T05:58:35.772Z,15.80
2022-09-18T06:01:04.725Z,15.80
2022-09-18T06:03:51.118Z,15.80
2022-09-18T06:06:19.527Z,15.80
2022-09-18T06:08:46.846Z,15.90
2022-09-18T06:11:15.938Z,15.90
2022-09-18T06:13:44.379Z,15.90
2022-09-18T06:16:13.061Z,15.90
2022-09-18T06:18:52.412Z,16.00
2022-09-18T06:21:21.016Z,16.00
2022-09-18T06:23:48.030Z,16.00
2022-09-18T06:26:26.228Z,16.00
2022-09-18T06:28:53.953Z,16.00
2022-09-18T06:31:21.576Z,16.00
2022-09-18T06:33:59.920Z,16.10
2022-09-18T06:36:27.038Z,16.10
2022-09-18T06:39:01.238Z,16.10
2022-09-18T06:41:28.403Z,16.10
2022-09-18T06:44:14.116Z,16.10
2022-09-18T06:46:48.015Z,16.10
2022-09-18T06:49:27.462Z,16.10
2022-09-18T06:51:55.590Z,16.10
2022-09-18T06:54:22.958Z,16.10
2022-09-18T06:56:50.002Z,16.10
2022-09-18T06:59:19.500Z,16.10
2022-09-18T07:01:49.672Z,16.10
2022-09-18T07:04:23.833Z,16.10
2022-09-18T07:06:51.712Z,16.10
2022-09-18T07:09:21.912Z,16.10
2022-09-18T07:12:07.695Z,16.10
2022-09-18T07:14:46.433Z,16.10
2022-09-18T07:17:18.658Z,16.10
2022-09-18T07:19:49.811Z,16.10
2022-09-18T07:22:19.284Z,16.20
2022-09-18T07:24:47.791Z,16.10
2022-09-18T07:27:15.335Z,16.10
2022-09-18T07:29:43.830Z,16.20
2022-09-18T07:32:14.286Z,16.20
2022-09-18T07:34:44.765Z,16.20
2022-09-18T07:37:16.508Z,16.20
2022-09-18T07:39:50.754Z,16.20
2022-09-18T07:42:37.363Z,16.20
2022-09-18T07:45:06.251Z,16.20
2022-09-18T07:47:34.293Z,16.20
2022-09-18T07:50:02.742Z,16.20
2022-09-18T07:52:30.363Z,16.20
2022-09-18T07:54:57.595Z,16.30
2022-09-18T07:57:35.305Z,16.30
2022-09-18T08:00:21.527Z,16.30
2022-09-18T08:02:52.419Z,16.30
2022-09-18T08:05:41.235Z,16.30
2022-09-18T08:08:13.150Z,16.30
2022-09-18T08:11:03.265Z,16.30
2022-09-18T08:13:51.543Z,16.30
2022-09-18T08:16:33.591Z,16.40
2022-09-18T08:19:01.435Z,16.40
2022-09-18T08:21:41.209Z,16.40
2022-09-18T08:24:10.985Z,16.40
2022-09-18T08:26:38.780Z,16.40
2022-09-18T08:29:07.466Z,16.50
2022-09-18T08:31:36.990Z,16.50
2022-09-18T08:34:07.495Z,16.60
2022-09-18T08:36:35.027Z,16.60
2022-09-18T08:39:10.264Z,16.80
2022-09-18T08:42:07.807Z,17.00
2022-09-18T08:44:49.148Z,17.10
2022-09-18T08:47:32.855Z,17.20
2022-09-18T08:50:19.586Z,17.30
2022-09-18T08:52:51.408Z,17.30
2022-09-18T08:55:47.659Z,17.30
2022-09-18T08:58:40.655Z,17.40
2022-09-18T09:01:16.222Z,17.40
2022-09-18T09:04:04.559Z,17.40
2022-09-18T09:06:50.242Z,17.50
2022-09-18T09:10:03.401Z,17.50
2022-09-18T09:13:19.321Z,17.50
2022-09-18T09:16:13.857Z,17.50
2022-09-18T09:19:13.495Z,17.60
2022-09-18T09:22:10.799Z,17.60
2022-09-18T09:25:10.721Z,17.70
2022-09-18T09:28:22.052Z,17.70
2022-09-18T09:31:13.750Z,17.70
2022-09-18T09:34:23.756Z,17.80
2022-09-18T09:36:59.352Z,17.80
2022-09-18T09:39:46.918Z,17.80
2022-09-18T09:42:33.934Z,17.90
2022-09-18T09:45:08.793Z,17.90
2022-09-18T09:47:54.105Z,18.00
2022-09-18T09:51:08.471Z,18.10
2022-09-18T09:53:36.587Z,18.10
2022-09-18T09:56:32.080Z,18.10
2022-09-18T09:59:28.328Z,18.20
2022-09-18T10:02:33.336Z,18.30
2022-09-18T10:05:53.625Z,18.40
2022-09-18T10:08:44.051Z,18.60
2022-09-18T10:11:13.134Z,18.80
2022-09-18T10:13:53.237Z,19.00
2022-09-18T10:16:29.929Z,19.10
2022-09-18T10:19:00.682Z,19.20
2022-09-18T10:21:34.971Z,19.20
2022-09-18T10:24:31.134Z,19.20
2022-09-18T10:27:10.268Z,19.20
2022-09-18T10:29:37.417Z,19.20
2022-09-18T10:32:07.933Z,19.20
2022-09-18T10:34:48.633Z,19.20
2022-09-18T10:37:29.952Z,19.20
2022-09-18T10:40:08.480Z,19.10
2022-09-18T10:42:38.092Z,19.10
2022-09-18T10:45:26.755Z,19.10
2022-09-18T10:48:13.858Z,19.10
2022-09-18T10:51:03.845Z,19.20
2022-09-18T10:53:42.654Z,19.20
2022-09-18T10:56:26.084Z,19.30
2022-09-18T10:58:55.664Z,19.30
2022-09-18T11:01:25.613Z,19.30
2022-09-18T11:04:04.979Z,19.30
2022-09-18T11:06:38.560Z,19.30
2022-09-18T11:09:35.407Z,19.40
2022-09-18T11:12:03.283Z,19.50
2022-09-18T11:14:46.873Z,19.50
2022-09-18T11:17:30.656Z,19.60
2022-09-18T11:20:00.661Z,19.70
2022-09-18T11:22:48.982Z,19.70
2022-09-18T11:25:28.982Z,19.80
2022-09-18T11:28:02.214Z,19.90
2022-09-18T11:30:38.962Z,19.90
2022-09-18T11:33:31.430Z,20.00
2022-09-18T11:36:11.844Z,20.00
2022-09-18T11:38:51.565Z,19.90
2022-09-18T11:41:35.046Z,20.00
2022-09-18T11:44:17.012Z,19.90
2022-09-18T11:46:58.910Z,20.00
2022-09-18T11:49:40.062Z,20.00
2022-09-18T11:52:28.966Z,19.90
2022-09-18T11:55:21.071Z,19.80
2022-09-18T11:57:55.333Z,19.80
2022-09-18T12:00:24.799Z,19.80
2022-09-18T12:03:31.417Z,19.70
2022-09-18T12:06:44.500Z,19.70
2022-09-18T12:09:54.282Z,19.70
2022-09-18T12:12:41.380Z,19.80
2022-09-18T12:15:23.170Z,20.00
2022-09-18T12:18:00.492Z,20.10
2022-09-18T12:20:45.682Z,20.20
2022-09-18T12:23:24.832Z,20.20
2022-09-18T12:26:17.545Z,20.20
2022-09-18T12:29:53.271Z,20.20
2022-09-18T12:32:54.879Z,20.10
2022-09-18T12:35:24.811Z,20.10
2022-09-18T12:38:10.721Z,20.10
2022-09-18T12:40:46.707Z,20.10
2022-09-18T12:43:49.415Z,20.10
2022-09-18T12:47:03.369Z,20.00
2022-09-18T12:50:01.380Z,20.00
2022-09-18T12:53:08.689Z,19.90
2022-09-18T12:55:44.972Z,19.90
2022-09-18T12:58:49.154Z,19.80
2022-09-18T13:01:39.777Z,19.80
2022-09-18T13:04:37.639Z,19.80
2022-09-18T13:07:23.158Z,19.70
2022-09-18T13:09:59.208Z,19.70
2022-09-18T13:12:56.559Z,19.60
2022-09-18T13:15:40.243Z,19.60
2022-09-18T13:18:26.469Z,19.50
2022-09-18T13:20:57.382Z,19.50
2022-09-18T13:23:27.877Z,19.40
2022-09-18T13:25:56.721Z,19.40
2022-09-18T13:28:28.262Z,19.40
2022-09-18T13:31:14.638Z,19.40
2022-09-18T13:33:58.222Z,19.40
2022-09-18T13:36:29.574Z,19.40
2022-09-18T13:39:01.398Z,19.40
2022-09-18T13:41:43.264Z,19.40
2022-09-18T13:44:23.283Z,19.50
2022-09-18T13:46:53.951Z,19.50
2022-09-18T13:49:21.167Z,19.50
2022-09-18T13:51:48.295Z,19.40
2022-09-18T13:54:22.636Z,19.40
2022-09-18T13:57:14.646Z,19.50
2022-09-18T13:59:58.752Z,19.40
2022-09-18T14:02:28.593Z,19.40
2022-09-18T14:05:03.334Z,19.50
2022-09-18T14:07:33.299Z,19.50
2022-09-18T14:10:21.436Z,19.50
2022-09-18T14:13:16.804Z,19.50
2022-09-18T14:16:04.180Z,19.50
2022-09-18T14:18:44.814Z,19.50
2022-09-18T14:21:17.743Z,19.50
2022-09-18T14:23:45.970Z,19.50
2022-09-18T14:26:32.034Z,19.50
2022-09-18T14:29:12.216Z,19.50
2022-09-18T14:31:45.522Z,19.50
2022-09-18T14:34:35.754Z,19.50
2022-09-18T14:37:27.610Z,19.50
2022-09-18T14:39:56.525Z,19.50
2022-09-18T14:42:38.631Z,19.50
2022-09-18T14:45:25.481Z,19.50
2022-09-18T14:47:52.916Z,19.50
2022-09-18T14:50:28.090Z,19.50
2022-09-18T14:52:59.500Z,19.40
2022-09-18T14:55:40.817Z,19.40
2022-09-18T14:58:15.909Z,19.40
2022-09-18T15:00:45.028Z,19.40
2022-09-18T15:03:27.695Z,19.30
2022-09-18T15:06:06.864Z,19.30
2022-09-18T15:08:34.095Z,19.30
2022-09-18T15:11:01.346Z,19.30
2022-09-18T15:13:33.350Z,19.20
2022-09-18T15:16:05.755Z,19.20
2022-09-18T15:18:42.955Z,19.20
2022-09-18T15:21:33.524Z,19.20
2022-09-18T15:24:03.121Z,19.20
2022-09-18T15:26:36.064Z,19.20
2022-09-18T15:29:14.072Z,19.20
2022-09-18T15:31:41.321Z,19.10
2022-09-18T15:34:23.465Z,19.10
2022-09-18T15:37:00.755Z,19.10
2022-09-18T15:39:32.782Z,19.10
2022-09-18T15:42:16.808Z,19.10
2022-09-18T15:44:55.977Z,19.00
2022-09-18T15:47:26.149Z,19.00
2022-09-18T15:49:53.606Z,19.00
2022-09-18T15:52:52.300Z,19.00
2022-09-18T15:55:34.801Z,18.90
2022-09-18T15:58:35.879Z,18.90
2022-09-18T16:01:06.874Z,18.90
2022-09-18T16:03:36.067Z,18.90
2022-09-18T16:06:06.397Z,18.90
2022-09-18T16:08:36.942Z,18.90
2022-09-18T16:11:06.414Z,18.90
2022-09-18T16:13:38.849Z,18.80
2022-09-18T16:16:09.309Z,18.80
2022-09-18T16:18:55.522Z,18.80
2022-09-18T16:21:27.020Z,18.80
2022-09-18T16:24:01.324Z,18.70
2022-09-18T16:26:35.467Z,18.70
2022-09-18T16:29:21.521Z,18.70
2022-09-18T16:34:33.761Z,18.60
2022-09-18T16:37:01.042Z,18.60
2022-09-18T16:39:28.157Z,18.60
2022-09-18T16:41:56.644Z,18.60
2022-09-18T16:44:24.939Z,18.60
2022-09-18T16:47:02.035Z,18.60
2022-09-18T16:49:33.248Z,18.60
2022-09-18T16:52:00.543Z,18.60
2022-09-18T16:54:27.919Z,18.60
2022-09-18T16:57:03.611Z,18.60
2022-09-18T16:59:32.970Z,18.60
2022-09-18T17:02:04.476Z,18.50
2022-09-18T17:04:34.538Z,18.50
2022-09-18T17:07:01.955Z,18.50
2022-09-18T17:09:29.281Z,18.50
2022-09-18T17:11:56.840Z,18.50
2022-09-18T17:14:24.603Z,18.50
2022-09-18T17:16:52.323Z,18.40
2022-09-18T17:19:21.364Z,18.40
2022-09-18T17:21:48.948Z,18.40
2022-09-18T17:24:17.521Z,18.40
2022-09-18T17:26:45.217Z,18.30
2022-09-18T17:29:12.516Z,18.30
2022-09-18T17:31:41.260Z,18.30
2022-09-18T17:34:09.092Z,18.30
2022-09-18T17:36:40.354Z,18.20
2022-09-18T17:39:07.647Z,18.20
2022-09-18T17:41:35.249Z,18.20
2022-09-18T17:44:02.551Z,18.20
2022-09-18T17:46:30.059Z,18.20
2022-09-18T17:48:58.745Z,18.10
2022-09-18T17:51:28.941Z,18.10
2022-09-18T17:54:05.565Z,18.10
2022-09-18T17:56:33.997Z,18.10
2022-09-18T17:59:06.114Z,18.10
2022-09-18T18:01:38.027Z,18.10
2022-09-18T18:04:06.322Z,18.10
2022-09-18T18:06:35.664Z,18.10
2022-09-18T18:09:05.304Z,18.10
2022-09-18T18:11:32.990Z,18.10
2022-09-18T18:14:00.275Z,18.10
2022-09-18T18:16:31.239Z,18.10
2022-09-18T18:19:03.721Z,18.10
2022-09-18T18:21:33.634Z,18.00
2022-09-18T18:24:09.130Z,18.10
2022-09-18T18:26:41.214Z,18.00
2022-09-18T18:29:11.383Z,18.00
2022-09-18T18:31:41.130Z,18.00
2022-09-18T18:34:10.433Z,18.00
2022-09-18T18:36:40.097Z,18.00
2022-09-18T18:39:12.029Z,18.00
2022-09-18T18:41:39.553Z,18.00
2022-09-18T18:44:07.412Z,18.00
2022-09-18T18:46:36.987Z,18.00
2022-09-18T18:49:09.389Z,18.00
2022-09-18T18:51:43.754Z,18.00
2022-09-18T18:54:11.559Z,18.00
2022-09-18T18:56:40.543Z,18.00
2022-09-18T18:59:11.386Z,18.00
2022-09-18T19:01:40.013Z,17.90
2022-09-18T19:04:15.832Z,17.90
2022-09-18T19:06:44.627Z,17.90
2022-09-18T19:09:29.830Z,17.90
2022-09-18T19:11:57.536Z,17.90
2022-09-18T19:14:30.333Z,17.90
2022-09-18T19:16:58.295Z,17.80
2022-09-18T19:19:28.278Z,17.80
2022-09-18T19:21:59.499Z,17.80
2022-09-18T19:24:28.188Z,17.80
2022-09-18T19:26:55.340Z,17.80
2022-09-18T19:29:22.836Z,17.80
2022-09-18T19:31:50.894Z,17.70
2022-09-18T19:34:20.160Z,17.80
2022-09-18T19:36:50.442Z,17.70
2022-09-18T19:39:20.907Z,17.70
2022-09-18T19:42:07.986Z,17.70
2022-09-18T19:44:41.655Z,17.70
2022-09-18T19:47:25.362Z,17.70
2022-09-18T19:49:55.198Z,17.70
2022-09-18T19:52:26.213Z,17.70
2022-09-18T19:54:55.207Z,17.70
2022-09-18T19:57:23.888Z,17.70
2022-09-18T19:59:54.229Z,17.80
2022-09-18T20:02:22.993Z,17.70
2022-09-18T20:04:50.251Z,17.70
2022-09-18T20:07:17.320Z,17.70
2022-09-18T20:09:44.390Z,17.70
2022-09-18T20:12:12.686Z,17.70
2022-09-18T20:14:39.970Z,17.70
2022-09-18T20:17:08.183Z,17.70
2022-09-18T20:19:35.666Z,17.70
2022-09-18T20:22:03.585Z,17.70
2022-09-18T20:24:32.871Z,17.70
2022-09-18T20:27:01.213Z,17.70
2022-09-18T20:29:29.063Z,17.70
2022-09-18T20:31:58.107Z,17.70
2022-09-18T20:34:25.706Z,17.70
2022-09-18T20:36:55.064Z,17.70
2022-09-18T20:39:22.352Z,17.70
2022-09-18T20:41:50.706Z,17.70
2022-09-18T20:44:19.062Z,17.70
2022-09-18T20:46:46.499Z,17.70
2022-09-18T20:49:17.350Z,17.70
2022-09-18T20:51:44.724Z,17.70
2022-09-18T20:54:14.562Z,17.70
2022-09-18T20:56:44.292Z,17.70
2022-09-18T20:59:15.979Z,17.70
2022-09-18T21:01:45.118Z,17.70
2022-09-18T21:04:17.360Z,17.70
2022-09-18T21:06:51.797Z,17.70
2022-09-18T21:09:19.579Z,17.70
2022-09-18T21:11:46.937Z,17.70
2022-09-18T21:14:20.690Z,17.70
2022-09-18T21:16:49.258Z,17.60
2022-09-18T21:19:19.392Z,17.70
2022-09-18T21:21:48.047Z,17.60
2022-09-18T21:24:16.009Z,17.60
2022-09-18T21:26:49.747Z,17.60
2022-09-18T21:29:26.562Z,17.60
2022-09-18T21:31:59.748Z,17.60
2022-09-18T21:34:31.143Z,17.60
2022-09-18T21:37:03.242Z,17.60
2022-09-18T21:39:32.463Z,17.60
2022-09-18T21:42:01.622Z,17.60
2022-09-18T21:44:31.793Z,17.60
2022-09-18T21:47:05.752Z,17.60
2022-09-18T21:49:33.316Z,17.60
2022-09-18T21:52:05.078Z,17.60
2022-09-18T21:54:33.663Z,17.60
2022-09-18T21:57:01.304Z,17.60
2022-09-18T21:59:31.233Z,17.60
2022-09-18T22:02:00.651Z,17.50
2022-09-18T22:04:32.388Z,17.50
2022-09-18T22:07:01.571Z,17.50
2022-09-18T22:09:32.303Z,17.50
2022-09-18T22:12:01.288Z,17.50
2022-09-18T22:14:32.489Z,17.50
2022-09-18T22:17:04.998Z,17.50
2022-09-18T22:19:33.365Z,17.50
2022-09-18T22:22:00.851Z,17.50
2022-09-18T22:24:28.769Z,17.40
2022-09-18T22:27:02.633Z,17.50
2022-09-18T22:29:34.176Z,17.40
2022-09-18T22:32:01.966Z,17.40
2022-09-18T22:34:31.181Z,17.40
2022-09-18T22:37:00.350Z,17.40
2022-09-18T22:39:27.770Z,17.40
2022-09-18T22:41:54.923Z,17.30
2022-09-18T22:44:22.725Z,17.30
2022-09-18T22:46:54.783Z,17.20
2022-09-18T22:49:23.418Z,17.20
2022-09-18T22:51:51.945Z,17.20
2022-09-18T22:54:24.482Z,17.20
2022-09-18T22:56:53.160Z,17.10
2022-09-18T22:59:25.056Z,17.20
2022-09-18T23:02:00.261Z,17.20
2022-09-18T23:04:29.811Z,17.20
2022-09-18T23:06:59.181Z,17.20
2022-09-18T23:09:27.483Z,17.20
2022-09-18T23:11:55.170Z,17.20
2022-09-18T23:14:27.633Z,17.20
2022-09-18T23:16:56.164Z,17.20
2022-09-18T23:19:27.035Z,17.10
2022-09-18T23:21:55.469Z,17.10
2022-09-18T23:24:23.721Z,17.20
2022-09-18T23:26:53.525Z,17.20
2022-09-18T23:29:24.015Z,17.10
2022-09-18T23:31:53.926Z,17.20
2022-09-18T23:34:26.728Z,17.20
2022-09-18T23:36:56.095Z,17.10
2022-09-18T23:39:30.127Z,17.10
2022-09-18T23:41:59.283Z,17.10
2022-09-18T23:44:28.625Z,17.10
2022-09-18T23:46:55.882Z,17.10
2022-09-18T23:49:41.922Z,17.00
2022-09-18T23:52:09.245Z,17.00
2022-09-18T23:54:36.144Z,17.00
2022-09-18T23:57:03.374Z,17.00
2022-09-18T23:59:30.424Z,17.00
